Aeroporto :
LOGIN :

Iscrizione | Disclaimer

   EN    FR    IT 

 










Sommario :    VFR   VFR Marginale   IFR   IFR Intensivo   IFR Molto Intensivo
Visibilità : 
Base nubi : 
>= 8 km
>= 3000ft
5 / 8 km
1000 / 3000 ft
1500m / 5 km
500 / 1000 ft
800 / 1500m
200 / 500 ft
< 800m
< 200 ft
Simboli :   Temporali  Nebbia  Neve Forte  Precipitazioni Forti  Vento > 20 kt
SIGMETs :   Varie  Temporali  Ghiacco  Turbolenza  Onda orograficha  Ceneri Vulcaniche






- Altitudine del aeroporto : 13 ft
- Codice IATA : SNR


LFRZ - St-Nazaire

ULTIMO METAR :
  • 051300Z AUTO 24015KT 7000 -RA OVC007 19/18 Q1006 TEMPO 23022G32KT 3500 -RADZ BKN004

METARs OBSOLETI :
  • 051230Z AUTO 20021KT 3700 -RA BR OVC005 19/18 Q1007 TEMPO 23022G32KT
  • 051200Z AUTO 21021KT 9999 -RA BKN007 OVC014 19/18 Q1007 TEMPO 23022G32KT 4500 -RADZ
  • 051130Z AUTO 21020KT 9999 OVC006 19/18 Q1008 TEMPO 23022G32KT 4500 -RADZ
  • 051100Z AUTO 20018G31KT 4900 -RA BR BKN006 OVC014 18/18 Q1008 NOSIG
  • 051030Z AUTO 19017KT 6000 2500 -RA SCT010 BKN014 BKN020 18/17 Q1008 TEMPO 23022G32KT 4500 -RA BKN006

TAF AMD TAF LFRZ
Valido dal 05 a 12 ore il 06 a 12 ore UTC


051235Z 0512/0612 21018KT 8000 -RA BKN014
TEMPO 0512/0515 3500 -RADZ BKN004
TEMPO 0512/0524 23022G32KT
BECMG 0513/0515 BKN020
TEMPO 0515/0524 4500 -SHRA BKN020TCU



MetMap, La meteo Aeronautica in un colpo d'occhio ! - Copyright ORBIFLY Dicembre 2007 - Disclaimer

ORBIFLY MET'MAP TEAM :

Programmazione e sviluppo : Alexandra Zaïnal
Concezione : Baudouin d'Aumeries
Aiuto per la programmazione : Marc-Olivier Méhu
Supporto tecnico e logistico : Manuel Goepfert
Aiuto per la traduzione : Arnaldo La Scala

Contatto : metmap@orbifly.com




FONTI E CREDITI :

   NOAA